Time;durP1;ratioP1;P1;durP2;ratioP2;P2;SDS_P1;SDS_P2;PMS_P1;PMS_P2;Temp;Humidity;BMP_temperature;BMP_pressure;BME280_temperature;BME280_humidity;BME280_pressure;Samples;Min_cycle;Max_cycle;Signal;HPM_P1;HPM_P2
2022/01/27 00:03:25;;;;;;;19.88;7.75;;;6.80;96.80;;;;;;5068479;28;20052;-67
2022/01/27 00:05:59;;;;;;;14.73;7.30;;;6.80;97.10;;;;;;5069645;28;20047;-66
2022/01/27 00:08:31;;;;;;;17.63;8.65;;;6.80;97.20;;;;;;5068061;28;20044;-66
2022/01/27 00:11:07;;;;;;;14.63;6.90;;;6.80;96.80;;;;;;5051371;28;20132;-68
2022/01/27 00:13:43;;;;;;;14.98;7.18;;;6.80;97.30;;;;;;5067419;28;20404;-66
2022/01/27 00:16:16;;;;;;;14.15;7.75;;;6.80;97.20;;;;;;5065271;28;20045;-66
2022/01/27 00:18:45;;;;;;;14.67;6.47;;;6.80;97.10;;;;;;5063072;28;20047;-66
2022/01/27 00:21:13;;;;;;;14.48;7.13;;;6.80;97.20;;;;;;5067932;28;20309;-67
2022/01/27 00:23:41;;;;;;;16.35;7.05;;;6.80;97.20;;;;;;5067704;28;20045;-67
2022/01/27 00:26:09;;;;;;;17.88;7.47;;;6.80;97.30;;;;;;5060076;28;20060;-67
2022/01/27 00:28:38;;;;;;;15.93;7.90;;;6.80;97.40;;;;;;5069371;28;20044;-67
2022/01/27 00:31:05;;;;;;;16.10;8.18;;;6.80;97.50;;;;;;5070951;28;20231;-67
2022/01/27 00:33:32;;;;;;;17.05;7.78;;;6.80;97.30;;;;;;5070262;28;20098;-67
2022/01/27 00:35:59;;;;;;;13.10;7.13;;;6.80;97.50;;;;;;5069382;28;20048;-67
2022/01/27 00:38:26;;;;;;;14.52;7.63;;;6.90;97.50;;;;;;5068955;28;20052;-67
2022/01/27 00:40:52;;;;;;;23.98;8.13;;;6.80;97.40;;;;;;5069244;28;20133;-68
2022/01/27 00:43:19;;;;;;;13.85;7.43;;;6.80;97.60;;;;;;5069525;28;20451;-67
2022/01/27 00:45:46;;;;;;;16.73;7.18;;;6.90;97.60;;;;;;5069332;28;20044;-68
2022/01/27 00:48:15;;;;;;;15.95;7.70;;;7.00;97.60;;;;;;5069692;28;20094;-68
2022/01/27 00:50:42;;;;;;;19.23;8.02;;;6.90;97.40;;;;;;5070549;28;20113;-68
2022/01/27 00:53:27;;;;;;;16.52;9.30;;;6.90;98.00;;;;;;5070500;28;20079;-68
2022/01/27 00:55:55;;;;;;;;;;;6.80;97.60;;;;;;5071284;28;20133;-67
2022/01/27 00:59:04;;;;;;;20.10;7.47;;;6.80;98.00;;;;;;5070660;28;20364;-68
2022/01/27 01:01:17;;;;;;;15.95;8.20;;;6.80;97.80;;;;;;5069863;28;20070;-69
2022/01/27 01:03:47;;;;;;;20.73;8.05;;;6.80;97.80;;;;;;5075072;28;20076;-67
2022/01/27 01:32:55;;;;;;;15.57;7.82;;;6.70;98.40;;;;;;5069540;28;20423;-67
2022/01/27 01:35:35;;;;;;;17.40;7.63;;;6.70;98.20;;;;;;5068701;28;20040;-67
2022/01/27 01:38:02;;;;;;;13.00;6.45;;;6.80;98.30;;;;;;5068486;28;20868;-68
2022/01/27 01:40:29;;;;;;;14.27;7.25;;;6.70;98.40;;;;;;5068809;28;20094;-66
2022/01/27 01:42:55;;;;;;;16.63;8.05;;;6.80;98.30;;;;;;5069858;28;20072;-66
2022/01/27 01:45:23;;;;;;;14.25;8.07;;;6.70;98.60;;;;;;5071131;28;20457;-66
2022/01/27 01:47:51;;;;;;;17.02;8.32;;;6.70;98.50;;;;;;5069654;28;20053;-66
2022/01/27 01:50:18;;;;;;;16.25;8.27;;;6.70;98.60;;;;;;5069897;28;20064;-67
2022/01/27 01:52:45;;;;;;;22.25;11.60;;;6.70;99.00;;;;;;5069009;28;20474;-68
2022/01/27 01:55:12;;;;;;;16.35;8.35;;;6.60;98.80;;;;;;5069548;28;20098;-67
2022/01/27 01:57:39;;;;;;;16.17;7.70;;;6.70;98.90;;;;;;5069458;28;20090;-67
2022/01/27 02:00:07;;;;;;;18.27;8.20;;;6.70;99.20;;;;;;5068517;28;20057;-67
2022/01/27 02:02:33;;;;;;;15.02;6.95;;;6.70;98.90;;;;;;5069502;28;20048;-68
2022/01/27 02:05:00;;;;;;;23.55;8.60;;;6.70;99.30;;;;;;5068449;28;20455;-67
2022/01/27 02:07:36;;;;;;;16.55;7.82;;;6.70;99.00;;;;;;5068294;28;20617;-67
2022/01/27 02:10:15;;;;;;;18.88;8.40;;;6.70;99.10;;;;;;5069680;28;20045;-67
2022/01/27 02:18:12;;;;;;;16.07;7.80;;;6.70;99.10;;;;;;4717164;28;10000361;-67
2022/01/27 02:20:40;;;;;;;14.80;7.28;;;6.70;99.00;;;;;;5065872;28;20135;-67
2022/01/27 02:23:09;;;;;;;19.15;7.15;;;6.70;99.30;;;;;;5051796;28;20052;-66
2022/01/27 02:25:36;;;;;;;13.88;7.50;;;6.80;99.40;;;;;;5069937;28;20424;-67
2022/01/27 02:28:05;;;;;;;18.33;7.22;;;6.70;99.60;;;;;;5055209;28;20040;-68
2022/01/27 02:30:31;;;;;;;18.23;6.75;;;6.70;99.40;;;;;;5072829;28;20049;-66
2022/01/27 02:32:59;;;;;;;14.23;6.38;;;6.70;99.60;;;;;;5072759;28;20091;-67
2022/01/27 02:35:28;;;;;;;15.25;7.85;;;6.80;99.40;;;;;;5062457;28;20461;-67
2022/01/27 02:37:55;;;;;;;17.00;7.03;;;6.80;99.40;;;;;;5072910;28;20491;-67
2022/01/27 02:40:43;;;;;;;19.20;7.28;;;6.90;99.40;;;;;;5071551;28;20892;-67
2022/01/27 02:43:10;;;;;;;13.35;7.38;;;7.00;99.10;;;;;;5071758;28;20044;-67
2022/01/27 02:45:41;;;;;;;18.27;7.32;;;7.00;99.00;;;;;;5073117;28;20044;-67
2022/01/27 02:48:08;;;;;;;13.57;6.97;;;7.10;99.00;;;;;;5071628;28;20084;-67
2022/01/27 02:50:34;;;;;;;13.77;5.85;;;7.00;99.00;;;;;;5072897;28;20106;-67
2022/01/27 02:53:01;;;;;;;14.98;7.00;;;7.00;99.40;;;;;;5072976;28;20535;-66
2022/01/27 02:55:28;;;;;;;12.77;6.35;;;7.00;99.00;;;;;;5072893;28;20091;-66
2022/01/27 02:57:57;;;;;;;15.13;5.82;;;7.00;99.00;;;;;;5071756;28;20071;-67
2022/01/27 03:00:26;;;;;;;12.70;6.88;;;7.00;99.10;;;;;;5059621;28;20071;-66
2022/01/27 03:02:53;;;;;;;18.50;7.18;;;7.00;99.00;;;;;;5072783;28;20055;-67
2022/01/27 03:05:20;;;;;;;14.30;7.28;;;7.00;99.10;;;;;;5072610;28;20660;-68
2022/01/27 03:07:48;;;;;;;10.30;6.00;;;6.90;99.40;;;;;;5073000;28;20080;-68
2022/01/27 03:10:16;;;;;;;15.38;5.80;;;6.90;99.50;;;;;;5072308;28;20119;-68
2022/01/27 03:12:43;;;;;;;12.40;6.50;;;6.90;99.40;;;;;;5072431;28;20090;-67
2022/01/27 03:15:11;;;;;;;11.60;6.45;;;7.00;99.40;;;;;;5054619;28;20075;-68
2022/01/27 03:17:41;;;;;;;16.33;6.05;;;7.00;99.40;;;;;;5072569;28;20431;-69
2022/01/27 03:20:09;;;;;;;10.98;6.53;;;7.00;99.60;;;;;;5071323;28;20052;-67
2022/01/27 03:22:36;;;;;;;12.90;5.63;;;7.10;99.50;;;;;;5072087;28;20110;-67
2022/01/27 03:25:03;;;;;;;15.05;6.28;;;7.10;99.40;;;;;;5070879;28;20061;-66
2022/01/27 03:27:30;;;;;;;11.65;6.00;;;7.10;99.30;;;;;;5070778;28;20059;-67
2022/01/27 03:29:57;;;;;;;10.00;5.55;;;7.10;99.50;;;;;;5070918;28;20072;-67
2022/01/27 03:32:27;;;;;;;14.52;6.15;;;7.20;99.40;;;;;;5070583;28;20099;-67
2022/01/27 03:34:54;;;;;;;11.02;5.80;;;7.20;99.30;;;;;;5071897;28;20090;-67
2022/01/27 03:37:21;;;;;;;15.02;5.65;;;7.20;99.30;;;;;;5070165;28;20453;-67
2022/01/27 03:39:48;;;;;;;9.32;5.80;;;7.20;99.60;;;;;;5071091;28;20056;-67
2022/01/27 03:42:15;;;;;;;13.57;6.05;;;7.30;99.70;;;;;;5053856;28;20041;-67
2022/01/27 03:44:42;;;;;;;13.43;5.78;;;7.30;99.80;;;;;;5071830;28;20515;-67
2022/01/27 03:47:09;;;;;;;11.20;5.05;;;7.30;99.90;;;;;;5071751;28;20048;-67
2022/01/27 03:49:35;;;;;;;9.60;5.20;;;7.40;99.70;;;;;;5071593;28;20507;-67
2022/01/27 03:52:03;;;;;;;16.10;7.18;;;7.40;99.70;;;;;;5070172;28;20449;-67
2022/01/27 03:54:30;;;;;;;10.43;5.13;;;7.30;99.80;;;;;;5071599;28;20044;-66
2022/01/27 03:56:58;;;;;;;9.50;5.10;;;7.40;99.60;;;;;;5071482;28;20388;-67
2022/01/27 03:59:27;;;;;;;14.30;4.82;;;7.50;99.90;;;;;;5071550;28;20516;-68
2022/01/27 04:01:54;;;;;;;11.30;5.38;;;7.40;99.80;;;;;;5070685;28;20106;-67
2022/01/27 04:04:22;;;;;;;12.57;5.95;;;7.50;99.80;;;;;;5042425;28;20422;-69
2022/01/27 04:06:51;;;;;;;10.98;4.53;;;7.40;99.70;;;;;;5071419;28;20079;-68
2022/01/27 04:09:18;;;;;;;10.82;4.95;;;7.50;99.90;;;;;;5071696;28;20080;-68
2022/01/27 04:11:47;;;;;;;9.88;5.80;;;7.50;99.90;;;;;;5072860;28;20245;-66
2022/01/27 04:14:14;;;;;;;11.93;5.03;;;7.50;99.90;;;;;;5075389;28;20052;-68
2022/01/27 04:16:41;;;;;;;8.65;4.80;;;7.50;99.90;;;;;;5077491;28;20041;-66
2022/01/27 04:19:07;;;;;;;10.07;5.05;;;7.50;99.90;;;;;;5079169;28;20048;-67
2022/01/27 04:21:34;;;;;;;10.55;5.28;;;7.60;99.90;;;;;;5078331;28;20032;-67
2022/01/27 04:24:01;;;;;;;10.20;3.90;;;7.60;99.90;;;;;;5065491;28;20079;-67
2022/01/27 04:26:36;;;;;;;11.63;4.80;;;7.60;99.90;;;;;;5075912;28;20076;-67
2022/01/27 04:29:03;;;;;;;13.13;5.15;;;7.60;99.90;;;;;;5058296;28;20076;-66
2022/01/27 04:31:30;;;;;;;12.85;5.15;;;7.60;99.80;;;;;;5072627;28;20105;-69
2022/01/27 04:33:58;;;;;;;10.55;5.15;;;7.60;99.90;;;;;;5073745;28;20055;-67
2022/01/27 04:36:30;;;;;;;6.68;4.13;;;7.70;99.70;;;;;;5073143;28;20106;-67
2022/01/27 04:39:20;;;;;;;10.07;4.22;;;7.70;99.90;;;;;;5072778;28;20044;-67
2022/01/27 04:42:00;;;;;;;8.48;4.68;;;7.70;99.90;;;;;;5072400;28;20078;-67
2022/01/27 04:44:40;;;;;;;8.73;4.13;;;7.70;99.90;;;;;;5071176;28;20040;-67
2022/01/27 04:47:17;;;;;;;12.18;5.15;;;7.70;99.90;;;;;;5073394;28;20067;-67
2022/01/27 04:49:45;;;;;;;9.90;4.38;;;7.70;99.90;;;;;;5071307;28;20049;-68
2022/01/27 04:52:12;;;;;;;7.07;4.03;;;7.80;99.90;;;;;;5071810;28;20102;-66
2022/01/27 04:54:55;;;;;;;13.32;4.57;;;7.80;99.90;;;;;;5071888;28;20052;-68
2022/01/27 04:57:23;;;;;;;10.15;4.63;;;7.80;99.90;;;;;;5070789;28;20040;-66
2022/01/27 04:59:49;;;;;;;7.50;3.55;;;7.90;99.90;;;;;;5070618;28;20048;-67
2022/01/27 05:02:26;;;;;;;15.25;4.45;;;7.90;99.90;;;;;;5070810;28;20105;-67
2022/01/27 05:04:53;;;;;;;8.90;3.65;;;7.90;99.90;;;;;;5069291;28;20079;-68
2022/01/27 05:07:40;;;;;;;11.57;4.20;;;7.90;99.90;;;;;;5070449;28;20055;-68
2022/01/27 05:10:11;;;;;;;8.05;4.07;;;7.80;99.90;;;;;;5070105;28;20080;-68
2022/01/27 05:12:46;;;;;;;8.68;3.70;;;7.90;99.90;;;;;;5069271;28;20055;-68
2022/01/27 05:15:12;;;;;;;5.72;3.05;;;7.90;99.90;;;;;;5067906;28;20109;-68
2022/01/27 05:17:39;;;;;;;9.02;3.75;;;7.90;99.80;;;;;;5079444;28;20092;-67
2022/01/27 05:20:07;;;;;;;6.65;3.70;;;7.90;99.90;;;;;;5069723;28;20052;-67
2022/01/27 05:22:33;;;;;;;8.27;3.40;;;7.90;99.90;;;;;;5070417;28;20091;-68
2022/01/27 05:25:00;;;;;;;13.10;4.28;;;7.90;99.90;;;;;;5069990;28;20045;-68
2022/01/27 05:27:27;;;;;;;11.02;3.20;;;7.90;99.90;;;;;;5050198;28;20071;-68
2022/01/27 05:29:59;;;;;;;8.45;3.63;;;8.00;99.90;;;;;;5065098;28;20045;-68
2022/01/27 05:32:26;;;;;;;12.07;3.65;;;8.00;99.90;;;;;;5069763;28;20071;-68
2022/01/27 05:34:53;;;;;;;18.63;6.43;;;8.00;99.90;;;;;;5069854;28;20075;-68
2022/01/27 05:37:19;;;;;;;6.72;3.53;;;8.00;99.90;;;;;;5070061;28;20177;-68
2022/01/27 05:39:46;;;;;;;7.30;3.70;;;8.00;99.90;;;;;;5069705;28;20079;-68
2022/01/27 05:42:13;;;;;;;10.30;4.10;;;8.00;99.90;;;;;;5069893;28;20040;-68
2022/01/27 05:44:40;;;;;;;6.60;3.22;;;8.00;99.90;;;;;;5069537;28;20530;-68
2022/01/27 05:47:06;;;;;;;8.77;4.05;;;8.00;99.90;;;;;;5069841;28;20131;-67
2022/01/27 05:49:33;;;;;;;9.02;3.33;;;8.00;99.90;;;;;;5069712;28;20044;-67
2022/01/27 05:52:00;;;;;;;6.07;3.45;;;8.00;99.90;;;;;;5069971;28;20086;-66
2022/01/27 05:54:27;;;;;;;12.73;3.78;;;8.00;99.90;;;;;;5069584;28;20052;-67
2022/01/27 05:56:54;;;;;;;12.43;4.78;;;8.10;99.90;;;;;;5069935;28;20566;-67
2022/01/27 05:59:21;;;;;;;14.95;5.05;;;8.10;99.90;;;;;;5069643;28;20083;-67
2022/01/27 06:01:48;;;;;;;6.07;2.83;;;8.00;99.90;;;;;;5076424;28;20090;-67
2022/01/27 06:04:15;;;;;;;11.13;3.35;;;8.00;99.90;;;;;;5076458;28;20044;-67
2022/01/27 06:06:41;;;;;;;12.00;4.15;;;8.00;99.90;;;;;;5076396;28;20072;-68
2022/01/27 06:09:08;;;;;;;8.90;3.97;;;8.00;99.90;;;;;;5075283;28;20089;-66
2022/01/27 06:11:35;;;;;;;9.00;3.25;;;8.10;99.90;;;;;;5074760;28;20082;-67
2022/01/27 06:14:02;;;;;;;20.23;6.85;;;8.00;99.90;;;;;;5076177;28;20094;-67
2022/01/27 06:16:29;;;;;;;8.77;3.83;;;8.00;99.90;;;;;;5074865;28;20180;-66
2022/01/27 06:18:56;;;;;;;7.78;3.85;;;8.10;99.90;;;;;;5076343;28;20076;-68
2022/01/27 06:21:23;;;;;;;7.20;3.45;;;8.10;99.90;;;;;;5074911;28;20067;-67
2022/01/27 06:23:51;;;;;;;13.32;3.42;;;8.00;99.90;;;;;;5076338;28;20056;-68
2022/01/27 06:26:17;;;;;;;6.97;3.10;;;8.10;99.90;;;;;;5075814;28;20491;-68
2022/01/27 06:28:44;;;;;;;6.35;3.45;;;8.10;99.90;;;;;;5075876;28;20083;-68
2022/01/27 06:31:12;;;;;;;9.23;4.10;;;8.10;99.90;;;;;;5075884;28;20076;-68
2022/01/27 06:33:38;;;;;;;7.78;3.33;;;8.10;99.90;;;;;;5076050;28;20113;-68
2022/01/27 06:36:05;;;;;;;7.78;3.72;;;8.10;99.90;;;;;;5071584;28;20471;-68
2022/01/27 06:38:32;;;;;;;9.55;3.38;;;8.10;99.90;;;;;;5068292;28;20607;-68
2022/01/27 06:40:59;;;;;;;10.18;3.85;;;8.10;99.90;;;;;;5059009;28;20070;-68
2022/01/27 06:43:26;;;;;;;12.70;3.78;;;8.10;99.90;;;;;;5075983;28;20702;-68
2022/01/27 06:45:52;;;;;;;10.60;3.72;;;8.10;99.90;;;;;;5075349;28;20462;-68
2022/01/27 06:48:19;;;;;;;10.10;3.88;;;8.10;99.90;;;;;;5075184;28;20048;-68
2022/01/27 06:50:51;;;;;;;8.90;4.35;;;8.10;99.90;;;;;;5063349;28;20084;-68
2022/01/27 06:53:17;;;;;;;10.00;4.03;;;8.10;99.90;;;;;;5067911;28;20064;-68
2022/01/27 06:55:44;;;;;;;10.50;4.15;;;8.10;99.90;;;;;;5076152;28;20083;-69
2022/01/27 06:58:11;;;;;;;9.82;3.65;;;8.20;99.90;;;;;;5075239;28;20072;-68
2022/01/27 07:00:38;;;;;;;18.80;4.85;;;8.10;99.90;;;;;;5075726;28;20048;-68
2022/01/27 07:03:05;;;;;;;8.15;3.00;;;8.10;99.90;;;;;;5075825;28;20131;-67
2022/01/27 07:05:33;;;;;;;7.82;3.53;;;8.10;99.90;;;;;;5064151;28;20087;-68
2022/01/27 07:08:00;;;;;;;9.27;3.70;;;8.10;99.90;;;;;;5067342;28;20105;-68
2022/01/27 07:10:27;;;;;;;9.27;3.72;;;8.10;99.90;;;;;;5073972;28;20045;-67
2022/01/27 07:12:54;;;;;;;8.50;3.30;;;8.10;99.90;;;;;;5067732;28;20048;-67
2022/01/27 07:15:21;;;;;;;8.45;3.55;;;8.10;99.90;;;;;;5066585;28;20044;-68
2022/01/27 07:17:48;;;;;;;8.95;4.10;;;8.10;99.90;;;;;;5071535;28;20139;-67
2022/01/27 07:20:16;;;;;;;11.18;3.90;;;8.10;99.90;;;;;;5070889;28;20067;-67
2022/01/27 07:22:44;;;;;;;14.73;3.58;;;8.10;99.90;;;;;;5071578;28;20040;-68
2022/01/27 07:25:11;;;;;;;7.95;3.83;;;8.10;99.90;;;;;;5063089;28;20067;-67
2022/01/27 07:27:38;;;;;;;7.07;3.65;;;8.10;99.90;;;;;;5062938;28;20098;-68
2022/01/27 07:30:05;;;;;;;9.95;4.18;;;8.10;99.90;;;;;;5059027;28;20080;-68
2022/01/27 07:32:32;;;;;;;6.70;3.65;;;8.10;99.90;;;;;;5062705;28;20257;-68
2022/01/27 07:35:01;;;;;;;6.82;3.20;;;8.20;99.90;;;;;;5073245;28;20049;-68
2022/01/27 07:37:27;;;;;;;10.95;4.38;;;8.10;99.90;;;;;;5062286;28;20049;-68
2022/01/27 07:39:54;;;;;;;9.40;3.35;;;8.20;99.90;;;;;;5064410;28;20566;-68
2022/01/27 07:42:22;;;;;;;8.35;4.22;;;8.20;99.90;;;;;;5060167;28;20106;-68
2022/01/27 07:44:49;;;;;;;8.35;3.80;;;8.20;99.90;;;;;;5063659;28;20385;-68
2022/01/27 07:47:15;;;;;;;5.85;3.30;;;8.30;99.90;;;;;;5060220;28;20500;-68
2022/01/27 07:49:42;;;;;;;12.98;4.18;;;8.30;99.90;;;;;;5062916;28;20076;-68
2022/01/27 07:52:11;;;;;;;7.80;3.60;;;8.30;99.90;;;;;;5042779;28;20544;-70
2022/01/27 07:54:38;;;;;;;8.80;3.85;;;8.30;99.90;;;;;;5059953;28;20052;-68
2022/01/27 07:57:04;;;;;;;11.13;4.18;;;8.30;99.90;;;;;;5060810;28;20053;-68
2022/01/27 07:59:32;;;;;;;7.15;3.70;;;8.30;99.90;;;;;;5064156;28;20080;-68
2022/01/27 08:01:58;;;;;;;5.15;3.00;;;8.30;99.90;;;;;;5055822;28;20080;-68
2022/01/27 08:04:26;;;;;;;8.70;3.50;;;8.40;99.90;;;;;;5062456;28;20049;-69
2022/01/27 08:06:53;;;;;;;11.93;6.00;;;8.40;99.90;;;;;;5064520;28;20645;-69
2022/01/27 08:09:19;;;;;;;9.35;3.72;;;8.40;99.90;;;;;;5069788;28;20412;-69
2022/01/27 08:11:46;;;;;;;11.13;3.65;;;8.40;99.90;;;;;;5069023;28;20553;-68
2022/01/27 08:14:13;;;;;;;10.25;3.42;;;8.40;99.90;;;;;;5069647;28;20392;-67
2022/01/27 08:16:40;;;;;;;6.93;3.72;;;8.40;99.90;;;;;;5069545;28;20083;-68
2022/01/27 08:19:07;;;;;;;7.53;3.55;;;8.40;99.90;;;;;;5067163;28;20083;-65
2022/01/27 08:21:33;;;;;;;13.15;3.78;;;8.40;99.90;;;;;;5069436;28;20072;-66
2022/01/27 08:24:00;;;;;;;8.07;4.10;;;8.40;99.90;;;;;;5068317;28;20091;-68
2022/01/27 08:26:40;;;;;;;17.00;6.15;;;8.40;99.90;;;;;;5070637;28;20044;-67
2022/01/27 08:29:14;;;;;;;4.53;3.28;;;8.50;99.90;;;;;;5066744;28;20527;-67
2022/01/27 08:31:59;;;;;;;9.40;5.60;;;8.50;99.90;;;;;;5065828;28;20299;-68
2022/01/27 08:34:34;;;;;;;7.13;3.47;;;8.50;99.90;;;;;;5054533;28;20056;-67
2022/01/27 08:37:02;;;;;;;7.15;3.58;;;8.50;99.90;;;;;;5063620;28;20083;-67
2022/01/27 08:39:29;;;;;;;11.68;3.70;;;8.50;99.90;;;;;;5068961;28;20268;-68
2022/01/27 08:41:56;;;;;;;6.40;3.03;;;8.50;99.90;;;;;;5068725;28;20079;-67
2022/01/27 08:44:23;;;;;;;12.75;3.13;;;8.50;99.90;;;;;;5067405;28;20099;-67
2022/01/27 08:46:50;;;;;;;8.05;3.47;;;8.50;99.90;;;;;;5067099;28;20476;-67
2022/01/27 08:49:19;;;;;;;9.00;3.30;;;8.50;99.90;;;;;;5067938;28;20049;-67
2022/01/27 08:51:49;;;;;;;7.80;3.72;;;8.50;99.90;;;;;;5069172;28;20048;-67
2022/01/27 08:54:16;;;;;;;9.77;3.22;;;8.50;99.90;;;;;;5068366;28;20476;-68
2022/01/27 08:56:43;;;;;;;6.90;3.33;;;8.60;99.90;;;;;;5067783;28;20135;-67
2022/01/27 08:59:10;;;;;;;10.30;3.25;;;8.60;99.90;;;;;;5067910;28;20063;-67
2022/01/27 09:01:37;;;;;;;5.22;3.60;;;8.60;99.90;;;;;;5069053;28;20423;-67
2022/01/27 09:04:04;;;;;;;8.52;3.03;;;8.60;99.90;;;;;;5069101;28;20261;-67
2022/01/27 09:06:31;;;;;;;9.77;2.75;;;8.60;99.90;;;;;;5068658;28;20051;-66
2022/01/27 09:08:59;;;;;;;9.95;3.78;;;8.60;99.90;;;;;;5068966;28;20155;-67
2022/01/27 09:11:26;;;;;;;8.30;3.78;;;8.70;99.90;;;;;;5054844;28;20407;-66
2022/01/27 09:13:54;;;;;;;5.10;2.95;;;8.70;99.90;;;;;;5068792;28;20110;-66
2022/01/27 09:16:26;;;;;;;9.20;3.60;;;8.70;99.90;;;;;;5068464;28;20069;-66
2022/01/27 09:19:12;;;;;;;9.10;3.38;;;8.70;99.90;;;;;;5060136;28;20056;-67
2022/01/27 09:21:45;;;;;;;5.80;3.75;;;8.70;99.90;;;;;;5068703;28;20496;-66
2022/01/27 09:24:17;;;;;;;6.22;2.88;;;8.70;99.90;;;;;;5067390;28;20541;-67
2022/01/27 09:29:19;;;;;;;10.27;3.53;;;8.80;99.90;;;;;;5057351;28;20079;-66
2022/01/27 09:31:47;;;;;;;5.25;3.30;;;8.80;99.90;;;;;;5068653;28;20052;-67
2022/01/27 09:34:14;;;;;;;5.53;2.50;;;8.80;99.90;;;;;;5067810;28;20098;-67
2022/01/27 09:36:41;;;;;;;4.38;2.75;;;8.80;99.90;;;;;;5068604;28;20049;-67
2022/01/27 09:39:08;;;;;;;12.77;3.80;;;8.90;99.90;;;;;;5070755;28;20391;-67
2022/01/27 09:41:40;;;;;;;4.68;2.63;;;8.90;99.90;;;;;;5051574;28;20044;-67
2022/01/27 09:44:12;;;;;;;4.50;2.65;;;8.90;99.90;;;;;;5061760;28;20137;-67
2022/01/27 09:46:45;;;;;;;9.80;3.78;;;8.90;99.90;;;;;;5067759;28;20048;-66
2022/01/27 09:49:17;;;;;;;7.07;3.55;;;8.90;99.90;;;;;;5068251;28;20138;-67
2022/01/27 09:51:45;;;;;;;12.43;3.33;;;8.90;99.90;;;;;;5069051;28;20411;-67
2022/01/27 09:54:13;;;;;;;6.75;2.97;;;8.90;99.90;;;;;;5067354;28;20125;-67
2022/01/27 09:56:40;;;;;;;8.20;3.00;;;8.90;99.90;;;;;;5069022;28;20048;-67
2022/01/27 09:59:13;;;;;;;9.17;5.80;;;8.90;99.90;;;;;;5068998;28;20135;-66
2022/01/27 10:01:54;;;;;;;7.93;2.90;;;8.90;99.90;;;;;;5067789;28;20326;-66
2022/01/27 10:04:23;;;;;;;6.28;2.85;;;8.90;99.90;;;;;;5068439;28;20064;-66
2022/01/27 10:06:56;;;;;;;8.65;2.88;;;9.00;99.90;;;;;;5067689;28;20052;-67
2022/01/27 10:09:27;;;;;;;7.85;2.83;;;9.00;99.90;;;;;;5068088;28;20044;-66
2022/01/27 10:11:54;;;;;;;4.63;2.65;;;9.00;99.90;;;;;;5068863;28;20303;-68
2022/01/27 10:14:24;;;;;;;6.85;3.63;;;9.00;99.90;;;;;;5068144;28;20300;-67
2022/01/27 10:16:54;;;;;;;5.82;3.17;;;9.00;99.90;;;;;;5069650;28;20079;-65
2022/01/27 10:19:22;;;;;;;7.35;3.63;;;9.00;99.90;;;;;;5068905;28;20131;-66
2022/01/27 10:21:49;;;;;;;7.65;3.17;;;9.10;99.90;;;;;;5069183;28;20408;-66
2022/01/27 10:24:25;;;;;;;7.85;3.08;;;9.10;99.90;;;;;;5068430;28;20072;-67
2022/01/27 10:27:24;;;;;;;7.80;3.50;;;9.10;99.90;;;;;;5069035;28;20044;-67
2022/01/27 10:32:45;;;;;;;5.68;3.50;;;9.10;99.90;;;;;;5068324;28;20045;-65
2022/01/27 10:35:13;;;;;;;10.57;3.70;;;9.20;99.90;;;;;;5068603;28;20051;-67
2022/01/27 10:37:55;;;;;;;12.32;2.85;;;9.20;99.90;;;;;;5067267;28;20109;-66
2022/01/27 10:40:30;;;;;;;11.68;4.28;;;9.20;99.90;;;;;;5068287;28;20512;-66
2022/01/27 10:43:16;;;;;;;10.13;3.30;;;9.20;99.90;;;;;;5048867;28;20127;-67
2022/01/27 10:46:12;;;;;;;8.13;2.92;;;9.30;99.90;;;;;;5066021;28;20075;-66
2022/01/27 10:48:41;;;;;;;7.65;2.95;;;9.30;99.90;;;;;;5074512;28;20085;-66
2022/01/27 10:51:14;;;;;;;8.50;3.55;;;9.30;99.90;;;;;;5076725;28;20090;-67
2022/01/27 10:54:04;;;;;;;8.18;3.42;;;9.40;99.90;;;;;;5056272;28;20387;-66
2022/01/27 10:56:35;;;;;;;8.63;3.72;;;9.30;99.90;;;;;;5072245;28;20047;-66
2022/01/27 10:59:20;;;;;;;10.68;3.50;;;9.40;99.90;;;;;;5070961;28;20048;-66
2022/01/27 11:01:49;;;;;;;9.30;4.05;;;9.40;99.90;;;;;;5070599;28;20462;-66
2022/01/27 11:04:17;;;;;;;8.30;3.92;;;9.50;99.90;;;;;;5053986;28;20469;-65
2022/01/27 11:06:55;;;;;;;7.53;2.90;;;9.50;99.90;;;;;;5070365;28;20092;-66
2022/01/27 11:09:22;;;;;;;15.27;4.00;;;9.60;99.90;;;;;;5070335;28;20040;-69
2022/01/27 11:11:49;;;;;;;7.97;3.30;;;9.60;99.90;;;;;;5071458;28;20465;-67
2022/01/27 11:14:16;;;;;;;10.25;3.33;;;9.70;99.90;;;;;;5070648;28;20052;-66
2022/01/27 11:16:44;;;;;;;6.82;3.00;;;9.70;99.90;;;;;;5071525;28;20503;-67
2022/01/27 11:21:58;;;;;;;9.80;3.22;;;9.80;99.90;;;;;;5067394;28;20465;-66
2022/01/27 11:27:26;;;;;;;8.40;4.07;;;9.90;99.90;;;;;;5069416;28;20052;-66
2022/01/27 11:30:00;;;;;;;6.45;3.47;;;10.00;99.90;;;;;;5070309;28;20449;-67
2022/01/27 11:32:41;;;;;;;10.32;3.42;;;10.10;99.90;;;;;;5053294;28;20403;-66
2022/01/27 11:35:24;;;;;;;10.32;3.42;;;10.10;99.90;;;;;;5070306;28;20487;-65
2022/01/27 11:37:52;;;;;;;8.18;4.45;;;10.30;99.90;;;;;;5069823;28;20201;-67
2022/01/27 11:40:20;;;;;;;6.88;3.25;;;10.40;99.90;;;;;;5071193;28;20045;-65
2022/01/27 11:42:56;;;;;;;6.15;3.42;;;10.40;99.90;;;;;;5070657;28;20056;-68
2022/01/27 11:45:27;;;;;;;5.15;2.35;;;10.40;99.90;;;;;;5070743;28;20114;-65
2022/01/27 11:48:02;;;;;;;8.65;3.00;;;10.50;99.90;;;;;;5052654;28;20495;-67
2022/01/27 11:50:38;;;;;;;2.95;2.03;;;10.50;99.90;;;;;;5069978;28;20103;-68
2022/01/27 11:53:11;;;;;;;6.10;2.95;;;10.50;99.90;;;;;;5069369;28;20122;-68
2022/01/27 11:55:44;;;;;;;6.22;2.92;;;10.60;99.90;;;;;;5071082;28;20457;-67
2022/01/27 11:58:15;;;;;;;9.52;2.85;;;10.50;99.90;;;;;;5070199;28;20479;-67
2022/01/27 12:01:07;;;;;;;5.80;2.70;;;10.50;99.90;;;;;;5071071;28;20103;-68
2022/01/27 12:03:34;;;;;;;5.90;2.30;;;10.60;99.90;;;;;;5053718;28;20040;-68
2022/01/27 12:06:34;;;;;;;5.97;2.40;;;10.50;99.90;;;;;;5070716;28;20060;-67
2022/01/27 12:09:19;;;;;;;5.03;3.20;;;10.60;99.90;;;;;;5066332;28;20383;-68
2022/01/27 12:11:52;;;;;;;7.55;2.83;;;10.60;99.90;;;;;;5070964;28;20075;-67
2022/01/27 12:14:23;;;;;;;10.57;2.92;;;10.70;99.90;;;;;;5039205;28;20081;-67
2022/01/27 12:17:08;;;;;;;8.77;3.30;;;10.70;99.90;;;;;;5071376;28;20257;-67
2022/01/27 12:20:01;;;;;;;7.45;2.80;;;10.80;99.90;;;;;;5071750;28;20504;-68
2022/01/27 12:22:45;;;;;;;5.45;2.45;;;10.70;99.90;;;;;;5070314;28;20076;-67
2022/01/27 12:25:13;;;;;;;4.78;2.45;;;10.70;99.90;;;;;;5070385;28;20052;-67
2022/01/27 12:27:40;;;;;;;4.80;3.00;;;10.70;99.90;;;;;;5069740;28;20518;-67
2022/01/27 12:30:16;;;;;;;5.95;3.55;;;10.70;99.90;;;;;;5064405;28;20056;-67
2022/01/27 12:32:43;;;;;;;11.10;4.32;;;10.70;99.90;;;;;;5068092;28;20040;-67
2022/01/27 12:35:16;;;;;;;10.07;3.55;;;10.90;99.90;;;;;;5069558;28;20055;-66
2022/01/27 12:37:45;;;;;;;10.02;4.25;;;10.90;99.90;;;;;;5050411;28;20124;-66
2022/01/27 12:40:16;;;;;;;10.45;4.35;;;10.80;99.90;;;;;;5069846;28;20082;-66
2022/01/27 12:42:50;;;;;;;7.97;3.83;;;10.90;99.90;;;;;;5069205;28;20066;-65
2022/01/27 12:45:18;;;;;;;6.60;4.25;;;10.80;99.90;;;;;;5064707;28;20076;-66
2022/01/27 12:47:48;;;;;;;8.60;4.13;;;10.80;99.90;;;;;;5070183;28;20136;-66
2022/01/27 12:50:20;;;;;;;24.30;5.03;;;10.80;99.90;;;;;;5069402;28;20048;-66
2022/01/27 12:52:51;;;;;;;6.72;4.18;;;10.80;99.90;;;;;;5069948;28;20470;-66
2022/01/27 12:55:29;;;;;;;8.27;3.83;;;10.80;99.90;;;;;;5069400;28;20414;-66
2022/01/27 12:57:57;;;;;;;6.13;3.40;;;10.80;99.90;;;;;;5068659;28;20052;-66
2022/01/27 13:00:25;;;;;;;8.20;3.33;;;10.90;99.90;;;;;;5069046;28;20048;-67
2022/01/27 13:02:58;;;;;;;4.75;2.97;;;11.00;99.90;;;;;;5067973;28;20095;-67
2022/01/27 13:05:39;;;;;;;4.68;2.30;;;11.10;99.90;;;;;;5069096;28;20048;-66
2022/01/27 13:08:11;;;;;;;3.28;2.35;;;11.10;99.90;;;;;;5066263;28;20059;-66
2022/01/27 13:10:51;;;;;;;4.75;2.35;;;11.10;99.90;;;;;;4715223;28;10000288;-66
2022/01/27 13:13:23;;;;;;;4.13;2.67;;;11.20;99.90;;;;;;5064971;28;20122;-66
2022/01/27 13:15:57;;;;;;;4.43;2.60;;;11.20;99.90;;;;;;5065861;28;20083;-66
2022/01/27 13:18:32;;;;;;;5.38;2.90;;;11.20;99.90;;;;;;5064345;28;20052;-68
2022/01/27 13:21:00;;;;;;;4.40;2.67;;;11.20;99.90;;;;;;5065695;28;20052;-67
2022/01/27 13:23:36;;;;;;;5.68;2.72;;;11.20;99.90;;;;;;5066348;28;20102;-67
2022/01/27 13:26:06;;;;;;;4.47;2.33;;;11.30;99.90;;;;;;5065248;28;20531;-67
2022/01/27 13:28:35;;;;;;;6.65;2.55;;;11.30;99.90;;;;;;5048292;28;20129;-67
2022/01/27 13:31:11;;;;;;;3.90;2.03;;;11.30;99.90;;;;;;5064197;28;20079;-68
2022/01/27 13:33:42;;;;;;;5.57;2.72;;;11.30;99.90;;;;;;5046126;28;20147;-67
2022/01/27 13:36:16;;;;;;;5.05;2.50;;;11.30;99.90;;;;;;5059868;28;20063;-68
2022/01/27 13:39:12;;;;;;;5.97;2.50;;;11.30;99.90;;;;;;5064861;28;20049;-67
2022/01/27 13:41:44;;;;;;;5.50;2.67;;;11.30;99.90;;;;;;5065359;28;20075;-66
2022/01/27 13:44:18;;;;;;;12.15;3.17;;;11.40;99.90;;;;;;5066050;28;20055;-67
2022/01/27 13:46:58;;;;;;;9.70;3.58;;;11.50;99.90;;;;;;5065847;28;20048;-67
2022/01/27 13:49:26;;;;;;;5.13;2.40;;;11.50;99.90;;;;;;5064587;28;20060;-68
2022/01/27 13:51:54;;;;;;;5.85;2.47;;;11.60;99.90;;;;;;5065846;28;20142;-65